sensor_id;sensor_type;location;lat;lon;timestamp;temperature;humidity
2106;DHT22;1059;52.548;13.408;2023-05-02T00:02:20;15.10;52.30
2106;DHT22;1059;52.548;13.408;2023-05-02T00:04:47;15.20;52.20
2106;DHT22;1059;52.548;13.408;2023-05-02T00:07:14;15.10;52.10
2106;DHT22;1059;52.548;13.408;2023-05-02T00:09:41;15.10;52.20
2106;DHT22;1059;52.548;13.408;2023-05-02T00:12:07;15.10;52.10
2106;DHT22;1059;52.548;13.408;2023-05-02T00:14:34;15.10;52.00
2106;DHT22;1059;52.548;13.408;2023-05-02T00:17:01;15.10;51.80
2106;DHT22;1059;52.548;13.408;2023-05-02T00:19:29;15.10;51.90
2106;DHT22;1059;52.548;13.408;2023-05-02T00:21:56;15.10;52.00
2106;DHT22;1059;52.548;13.408;2023-05-02T00:24:23;15.10;51.40
2106;DHT22;1059;52.548;13.408;2023-05-02T00:26:51;15.00;51.50
2106;DHT22;1059;52.548;13.408;2023-05-02T00:29:18;15.00;51.50
2106;DHT22;1059;52.548;13.408;2023-05-02T00:31:45;14.90;51.40
2106;DHT22;1059;52.548;13.408;2023-05-02T00:34:12;14.90;51.40
2106;DHT22;1059;52.548;13.408;2023-05-02T00:36:40;14.90;51.60
2106;DHT22;1059;52.548;13.408;2023-05-02T00:39:07;14.90;51.60
2106;DHT22;1059;52.548;13.408;2023-05-02T00:41:34;14.80;51.60
2106;DHT22;1059;52.548;13.408;2023-05-02T00:44:01;14.80;51.70
2106;DHT22;1059;52.548;13.408;2023-05-02T00:46:28;14.70;51.50
2106;DHT22;1059;52.548;13.408;2023-05-02T00:48:55;14.70;51.50
2106;DHT22;1059;52.548;13.408;2023-05-02T00:51:22;14.70;51.50
2106;DHT22;1059;52.548;13.408;2023-05-02T00:53:51;14.70;52.00
2106;DHT22;1059;52.548;13.408;2023-05-02T00:56:18;14.60;52.00
2106;DHT22;1059;52.548;13.408;2023-05-02T00:58:46;14.60;52.20
2106;DHT22;1059;52.548;13.408;2023-05-02T01:01:25;14.50;52.50
2106;DHT22;1059;52.548;13.408;2023-05-02T01:04:05;14.50;52.90
2106;DHT22;1059;52.548;13.408;2023-05-02T01:06:42;14.40;53.40
2106;DHT22;1059;52.548;13.408;2023-05-02T01:09:25;14.40;54.00
2106;DHT22;1059;52.548;13.408;2023-05-02T01:12:00;14.30;54.60
2106;DHT22;1059;52.548;13.408;2023-05-02T01:14:30;14.30;55.40
2106;DHT22;1059;52.548;13.408;2023-05-02T01:17:01;14.30;55.90
2106;DHT22;1059;52.548;13.408;2023-05-02T01:19:33;14.20;56.80
2106;DHT22;1059;52.548;13.408;2023-05-02T01:22:04;14.20;57.80
2106;DHT22;1059;52.548;13.408;2023-05-02T01:24:37;14.20;58.70
2106;DHT22;1059;52.548;13.408;2023-05-02T01:27:14;14.20;59.40
2106;DHT22;1059;52.548;13.408;2023-05-02T01:29:43;14.10;60.50
2106;DHT22;1059;52.548;13.408;2023-05-02T01:32:12;14.10;61.80
2106;DHT22;1059;52.548;13.408;2023-05-02T01:34:42;14.00;63.80
2106;DHT22;1059;52.548;13.408;2023-05-02T01:37:10;14.00;65.60
2106;DHT22;1059;52.548;13.408;2023-05-02T01:39:39;14.00;67.50
2106;DHT22;1059;52.548;13.408;2023-05-02T01:42:06;14.00;69.20
2106;DHT22;1059;52.548;13.408;2023-05-02T01:44:33;13.80;71.40
2106;DHT22;1059;52.548;13.408;2023-05-02T01:47:04;13.80;74.70
2106;DHT22;1059;52.548;13.408;2023-05-02T01:49:33;13.60;79.70
2106;DHT22;1059;52.548;13.408;2023-05-02T01:52:04;13.50;82.90
2106;DHT22;1059;52.548;13.408;2023-05-02T01:54:32;13.50;86.60
2106;DHT22;1059;52.548;13.408;2023-05-02T01:57:01;13.50;90.10
2106;DHT22;1059;52.548;13.408;2023-05-02T01:59:32;13.50;91.70
2106;DHT22;1059;52.548;13.408;2023-05-02T02:02:00;13.50;92.70
2106;DHT22;1059;52.548;13.408;2023-05-02T02:04:29;13.60;93.30
2106;DHT22;1059;52.548;13.408;2023-05-02T02:07:01;13.60;93.80
2106;DHT22;1059;52.548;13.408;2023-05-02T02:09:29;13.60;94.20
2106;DHT22;1059;52.548;13.408;2023-05-02T02:12:01;13.70;94.50
2106;DHT22;1059;52.548;13.408;2023-05-02T02:14:35;13.70;95.00
2106;DHT22;1059;52.548;13.408;2023-05-02T02:17:08;13.60;95.80
2106;DHT22;1059;52.548;13.408;2023-05-02T02:19:40;13.60;96.50
2106;DHT22;1059;52.548;13.408;2023-05-02T02:22:07;13.60;97.10
2106;DHT22;1059;52.548;13.408;2023-05-02T02:24:36;13.60;98.00
2106;DHT22;1059;52.548;13.408;2023-05-02T02:27:05;13.60;98.70
2106;DHT22;1059;52.548;13.408;2023-05-02T02:29:32;13.60;99.40
2106;DHT22;1059;52.548;13.408;2023-05-02T02:31:59;13.50;99.90
2106;DHT22;1059;52.548;13.408;2023-05-02T02:34:25;13.40;99.90
2106;DHT22;1059;52.548;13.408;2023-05-02T02:36:56;13.40;99.90
2106;DHT22;1059;52.548;13.408;2023-05-02T02:39:34;13.40;99.90
2106;DHT22;1059;52.548;13.408;2023-05-02T02:42:10;13.30;99.90
2106;DHT22;1059;52.548;13.408;2023-05-02T02:44:46;13.20;99.90
2106;DHT22;1059;52.548;13.408;2023-05-02T02:47:20;13.20;99.90
2106;DHT22;1059;52.548;13.408;2023-05-02T02:49:53;13.10;99.90
2106;DHT22;1059;52.548;13.408;2023-05-02T02:52:31;13.00;99.90
2106;DHT22;1059;52.548;13.408;2023-05-02T02:55:03;13.00;99.90
2106;DHT22;1059;52.548;13.408;2023-05-02T02:57:40;13.00;99.90
2106;DHT22;1059;52.548;13.408;2023-05-02T03:00:15;12.90;99.90
2106;DHT22;1059;52.548;13.408;2023-05-02T03:02:44;13.00;99.90
2106;DHT22;1059;52.548;13.408;2023-05-02T03:05:12;13.00;99.90
2106;DHT22;1059;52.548;13.408;2023-05-02T03:07:40;12.90;99.90
2106;DHT22;1059;52.548;13.408;2023-05-02T03:10:08;12.80;99.90
2106;DHT22;1059;52.548;13.408;2023-05-02T03:12:36;12.80;99.90
2106;DHT22;1059;52.548;13.408;2023-05-02T03:15:17;12.80;99.90
2106;DHT22;1059;52.548;13.408;2023-05-02T03:17:48;12.70;99.90
2106;DHT22;1059;52.548;13.408;2023-05-02T03:20:15;12.60;99.90
2106;DHT22;1059;52.548;13.408;2023-05-02T03:22:44;12.60;99.90
2106;DHT22;1059;52.548;13.408;2023-05-02T03:25:10;12.50;99.90
2106;DHT22;1059;52.548;13.408;2023-05-02T03:27:37;12.40;99.90
2106;DHT22;1059;52.548;13.408;2023-05-02T03:30:05;12.40;99.90
2106;DHT22;1059;52.548;13.408;2023-05-02T03:32:32;12.40;99.90
2106;DHT22;1059;52.548;13.408;2023-05-02T03:34:59;12.40;99.90
2106;DHT22;1059;52.548;13.408;2023-05-02T03:37:26;12.30;99.90
2106;DHT22;1059;52.548;13.408;2023-05-02T03:39:54;12.20;99.90
2106;DHT22;1059;52.548;13.408;2023-05-02T03:42:21;12.10;99.90
2106;DHT22;1059;52.548;13.408;2023-05-02T03:44:51;12.00;99.90
2106;DHT22;1059;52.548;13.408;2023-05-02T03:47:18;12.00;99.90
2106;DHT22;1059;52.548;13.408;2023-05-02T03:49:45;11.90;99.90
2106;DHT22;1059;52.548;13.408;2023-05-02T03:52:11;11.90;99.90
2106;DHT22;1059;52.548;13.408;2023-05-02T03:54:38;11.90;99.90
2106;DHT22;1059;52.548;13.408;2023-05-02T03:57:09;12.00;99.90
2106;DHT22;1059;52.548;13.408;2023-05-02T03:59:37;11.90;99.90
2106;DHT22;1059;52.548;13.408;2023-05-02T04:02:06;11.90;99.90
2106;DHT22;1059;52.548;13.408;2023-05-02T04:04:33;11.90;99.90
2106;DHT22;1059;52.548;13.408;2023-05-02T04:07:00;11.90;99.90
2106;DHT22;1059;52.548;13.408;2023-05-02T04:09:27;11.90;99.90
2106;DHT22;1059;52.548;13.408;2023-05-02T04:11:54;11.80;99.90
2106;DHT22;1059;52.548;13.408;2023-05-02T04:14:22;11.80;99.90
2106;DHT22;1059;52.548;13.408;2023-05-02T04:16:50;11.80;99.90
2106;DHT22;1059;52.548;13.408;2023-05-02T04:19:17;11.80;99.90
2106;DHT22;1059;52.548;13.408;2023-05-02T04:21:44;11.80;99.90
2106;DHT22;1059;52.548;13.408;2023-05-02T04:24:12;11.80;99.90
2106;DHT22;1059;52.548;13.408;2023-05-02T04:26:39;11.70;99.90
2106;DHT22;1059;52.548;13.408;2023-05-02T04:29:06;11.70;99.90
2106;DHT22;1059;52.548;13.408;2023-05-02T04:31:35;11.70;99.90
2106;DHT22;1059;52.548;13.408;2023-05-02T04:34:01;11.70;99.90
2106;DHT22;1059;52.548;13.408;2023-05-02T04:36:29;11.70;99.90
2106;DHT22;1059;52.548;13.408;2023-05-02T04:38:56;11.60;99.90
2106;DHT22;1059;52.548;13.408;2023-05-02T04:41:23;11.60;99.90
2106;DHT22;1059;52.548;13.408;2023-05-02T04:43:50;11.70;99.90
2106;DHT22;1059;52.548;13.408;2023-05-02T04:46:17;11.80;99.90
2106;DHT22;1059;52.548;13.408;2023-05-02T04:48:45;11.80;99.90
2106;DHT22;1059;52.548;13.408;2023-05-02T04:51:12;11.90;99.90
2106;DHT22;1059;52.548;13.408;2023-05-02T04:53:39;11.90;99.90
2106;DHT22;1059;52.548;13.408;2023-05-02T04:56:06;11.90;99.90
2106;DHT22;1059;52.548;13.408;2023-05-02T04:58:33;11.90;99.90
2106;DHT22;1059;52.548;13.408;2023-05-02T05:01:00;11.90;99.90
2106;DHT22;1059;52.548;13.408;2023-05-02T05:03:27;11.90;99.90
2106;DHT22;1059;52.548;13.408;2023-05-02T05:05:56;11.90;99.90
2106;DHT22;1059;52.548;13.408;2023-05-02T05:08:23;12.00;99.90
2106;DHT22;1059;52.548;13.408;2023-05-02T05:10:50;12.00;99.90
2106;DHT22;1059;52.548;13.408;2023-05-02T05:13:17;12.10;99.90
2106;DHT22;1059;52.548;13.408;2023-05-02T05:15:44;12.10;99.90
2106;DHT22;1059;52.548;13.408;2023-05-02T05:18:11;12.10;99.90
2106;DHT22;1059;52.548;13.408;2023-05-02T05:20:38;12.10;99.90
2106;DHT22;1059;52.548;13.408;2023-05-02T05:23:06;12.10;99.90
2106;DHT22;1059;52.548;13.408;2023-05-02T05:25:33;12.00;99.90
2106;DHT22;1059;52.548;13.408;2023-05-02T05:28:00;11.90;99.90
2106;DHT22;1059;52.548;13.408;2023-05-02T05:30:27;11.90;99.90
2106;DHT22;1059;52.548;13.408;2023-05-02T05:32:55;11.90;99.90
2106;DHT22;1059;52.548;13.408;2023-05-02T05:35:23;11.90;99.90
2106;DHT22;1059;52.548;13.408;2023-05-02T05:37:49;12.00;99.90
2106;DHT22;1059;52.548;13.408;2023-05-02T05:40:18;11.90;99.90
2106;DHT22;1059;52.548;13.408;2023-05-02T05:42:45;11.90;99.90
2106;DHT22;1059;52.548;13.408;2023-05-02T05:45:12;11.90;99.90
2106;DHT22;1059;52.548;13.408;2023-05-02T05:47:41;11.90;99.90
2106;DHT22;1059;52.548;13.408;2023-05-02T05:50:08;11.90;99.90
2106;DHT22;1059;52.548;13.408;2023-05-02T05:52:35;11.90;99.90
2106;DHT22;1059;52.548;13.408;2023-05-02T05:55:03;11.90;99.90
2106;DHT22;1059;52.548;13.408;2023-05-02T05:57:32;11.90;99.90
2106;DHT22;1059;52.548;13.408;2023-05-02T05:59:59;11.90;99.90
2106;DHT22;1059;52.548;13.408;2023-05-02T06:02:26;11.90;99.90
2106;DHT22;1059;52.548;13.408;2023-05-02T06:04:53;12.00;99.90
2106;DHT22;1059;52.548;13.408;2023-05-02T06:07:20;12.10;99.90
2106;DHT22;1059;52.548;13.408;2023-05-02T06:09:46;12.10;99.90
2106;DHT22;1059;52.548;13.408;2023-05-02T06:12:13;12.20;99.90
2106;DHT22;1059;52.548;13.408;2023-05-02T06:14:42;12.10;99.90
2106;DHT22;1059;52.548;13.408;2023-05-02T06:17:09;12.10;99.90
2106;DHT22;1059;52.548;13.408;2023-05-02T06:19:36;12.20;99.90
2106;DHT22;1059;52.548;13.408;2023-05-02T06:22:03;12.20;99.90
2106;DHT22;1059;52.548;13.408;2023-05-02T06:24:30;12.30;99.90
2106;DHT22;1059;52.548;13.408;2023-05-02T06:26:57;12.40;99.90
2106;DHT22;1059;52.548;13.408;2023-05-02T06:29:25;12.50;99.90
2106;DHT22;1059;52.548;13.408;2023-05-02T06:31:55;12.50;99.90
2106;DHT22;1059;52.548;13.408;2023-05-02T06:34:22;12.60;99.90
2106;DHT22;1059;52.548;13.408;2023-05-02T06:36:53;12.60;99.90
2106;DHT22;1059;52.548;13.408;2023-05-02T06:39:20;12.60;99.90
2106;DHT22;1059;52.548;13.408;2023-05-02T06:41:47;12.60;99.90
2106;DHT22;1059;52.548;13.408;2023-05-02T06:44:14;12.60;99.90
2106;DHT22;1059;52.548;13.408;2023-05-02T06:46:41;12.60;99.90
2106;DHT22;1059;52.548;13.408;2023-05-02T06:49:09;12.70;99.90
2106;DHT22;1059;52.548;13.408;2023-05-02T06:51:36;12.60;99.90
2106;DHT22;1059;52.548;13.408;2023-05-02T06:54:03;12.60;99.90
2106;DHT22;1059;52.548;13.408;2023-05-02T06:56:30;12.60;99.90
2106;DHT22;1059;52.548;13.408;2023-05-02T06:58:57;12.60;99.90
2106;DHT22;1059;52.548;13.408;2023-05-02T07:01:24;12.60;99.90
2106;DHT22;1059;52.548;13.408;2023-05-02T07:03:51;12.60;99.90
2106;DHT22;1059;52.548;13.408;2023-05-02T07:06:19;12.70;99.90
2106;DHT22;1059;52.548;13.408;2023-05-02T07:08:46;12.70;99.90
2106;DHT22;1059;52.548;13.408;2023-05-02T07:11:13;12.80;99.90
2106;DHT22;1059;52.548;13.408;2023-05-02T07:13:39;12.90;99.90
2106;DHT22;1059;52.548;13.408;2023-05-02T07:16:07;13.00;99.90
2106;DHT22;1059;52.548;13.408;2023-05-02T07:18:33;13.10;99.90
2106;DHT22;1059;52.548;13.408;2023-05-02T07:21:00;13.20;99.90
2106;DHT22;1059;52.548;13.408;2023-05-02T07:23:29;13.10;99.90
2106;DHT22;1059;52.548;13.408;2023-05-02T07:25:56;13.10;99.90
2106;DHT22;1059;52.548;13.408;2023-05-02T07:28:23;13.20;99.90
2106;DHT22;1059;52.548;13.408;2023-05-02T07:30:50;13.20;99.90
2106;DHT22;1059;52.548;13.408;2023-05-02T07:33:17;13.30;99.90
2106;DHT22;1059;52.548;13.408;2023-05-02T07:35:44;13.40;99.90
2106;DHT22;1059;52.548;13.408;2023-05-02T07:38:11;13.60;99.90
2106;DHT22;1059;52.548;13.408;2023-05-02T07:40:39;13.80;99.90
2106;DHT22;1059;52.548;13.408;2023-05-02T07:43:06;13.80;99.90
2106;DHT22;1059;52.548;13.408;2023-05-02T07:45:33;14.00;99.90
2106;DHT22;1059;52.548;13.408;2023-05-02T07:48:00;14.10;99.90
2106;DHT22;1059;52.548;13.408;2023-05-02T07:50:28;14.20;99.90
2106;DHT22;1059;52.548;13.408;2023-05-02T07:52:55;14.30;99.90
2106;DHT22;1059;52.548;13.408;2023-05-02T07:55:22;14.40;99.90
2106;DHT22;1059;52.548;13.408;2023-05-02T07:57:52;14.40;99.90
2106;DHT22;1059;52.548;13.408;2023-05-02T08:00:19;14.30;99.90
2106;DHT22;1059;52.548;13.408;2023-05-02T08:02:46;14.30;99.90
2106;DHT22;1059;52.548;13.408;2023-05-02T08:05:13;14.10;99.90
2106;DHT22;1059;52.548;13.408;2023-05-02T08:07:40;14.00;99.90
2106;DHT22;1059;52.548;13.408;2023-05-02T08:10:08;14.10;99.90
2106;DHT22;1059;52.548;13.408;2023-05-02T08:12:37;14.20;99.90
2106;DHT22;1059;52.548;13.408;2023-05-02T08:15:07;14.30;99.90
2106;DHT22;1059;52.548;13.408;2023-05-02T08:17:34;14.40;99.90
2106;DHT22;1059;52.548;13.408;2023-05-02T08:20:01;14.40;99.90
2106;DHT22;1059;52.548;13.408;2023-05-02T08:22:28;14.40;99.90
2106;DHT22;1059;52.548;13.408;2023-05-02T08:24:55;14.50;99.90
2106;DHT22;1059;52.548;13.408;2023-05-02T08:27:22;14.70;99.90
2106;DHT22;1059;52.548;13.408;2023-05-02T08:29:49;14.70;99.90
2106;DHT22;1059;52.548;13.408;2023-05-02T08:32:17;14.60;99.90
2106;DHT22;1059;52.548;13.408;2023-05-02T08:34:44;14.30;99.90
2106;DHT22;1059;52.548;13.408;2023-05-02T08:37:10;13.90;99.90
2106;DHT22;1059;52.548;13.408;2023-05-02T08:39:37;13.80;99.90
2106;DHT22;1059;52.548;13.408;2023-05-02T08:42:05;13.60;99.90
2106;DHT22;1059;52.548;13.408;2023-05-02T08:44:33;13.60;99.90
2106;DHT22;1059;52.548;13.408;2023-05-02T08:47:01;13.60;99.90
2106;DHT22;1059;52.548;13.408;2023-05-02T08:49:30;13.60;99.90
2106;DHT22;1059;52.548;13.408;2023-05-02T08:51:58;13.70;99.90
2106;DHT22;1059;52.548;13.408;2023-05-02T08:54:27;13.80;99.90
2106;DHT22;1059;52.548;13.408;2023-05-02T08:56:55;13.80;99.90
2106;DHT22;1059;52.548;13.408;2023-05-02T08:59:24;13.90;99.90
2106;DHT22;1059;52.548;13.408;2023-05-02T09:01:54;13.90;99.90
2106;DHT22;1059;52.548;13.408;2023-05-02T09:04:23;13.90;99.90
2106;DHT22;1059;52.548;13.408;2023-05-02T09:06:55;13.90;99.90
2106;DHT22;1059;52.548;13.408;2023-05-02T09:09:21;14.00;99.90
2106;DHT22;1059;52.548;13.408;2023-05-02T09:11:49;14.10;99.90
2106;DHT22;1059;52.548;13.408;2023-05-02T09:14:17;14.10;99.90
2106;DHT22;1059;52.548;13.408;2023-05-02T09:16:44;14.10;99.90
2106;DHT22;1059;52.548;13.408;2023-05-02T09:19:23;14.20;99.90
2106;DHT22;1059;52.548;13.408;2023-05-02T09:21:50;14.30;99.90
2106;DHT22;1059;52.548;13.408;2023-05-02T09:24:20;14.40;99.90
2106;DHT22;1059;52.548;13.408;2023-05-02T09:26:57;14.50;99.90
2106;DHT22;1059;52.548;13.408;2023-05-02T09:29:25;14.40;99.90
2106;DHT22;1059;52.548;13.408;2023-05-02T09:31:52;14.40;99.90
2106;DHT22;1059;52.548;13.408;2023-05-02T09:34:19;14.50;99.90
2106;DHT22;1059;52.548;13.408;2023-05-02T09:36:47;14.40;99.90
2106;DHT22;1059;52.548;13.408;2023-05-02T09:39:17;14.30;99.90
2106;DHT22;1059;52.548;13.408;2023-05-02T09:41:46;14.20;99.90
2106;DHT22;1059;52.548;13.408;2023-05-02T09:44:15;13.90;99.90
2106;DHT22;1059;52.548;13.408;2023-05-02T09:46:45;13.90;99.90
2106;DHT22;1059;52.548;13.408;2023-05-02T09:49:13;14.00;99.90
2106;DHT22;1059;52.548;13.408;2023-05-02T09:51:43;14.00;99.90
2106;DHT22;1059;52.548;13.408;2023-05-02T09:54:11;14.10;99.90
2106;DHT22;1059;52.548;13.408;2023-05-02T09:56:55;14.20;99.90
2106;DHT22;1059;52.548;13.408;2023-05-02T09:59:23;14.00;99.90
2106;DHT22;1059;52.548;13.408;2023-05-02T10:01:57;14.20;99.90
2106;DHT22;1059;52.548;13.408;2023-05-02T10:04:25;14.30;99.90
2106;DHT22;1059;52.548;13.408;2023-05-02T10:06:53;14.50;99.90
2106;DHT22;1059;52.548;13.408;2023-05-02T10:09:21;14.60;99.90
2106;DHT22;1059;52.548;13.408;2023-05-02T10:11:50;14.60;99.90
2106;DHT22;1059;52.548;13.408;2023-05-02T10:14:21;14.30;99.90
2106;DHT22;1059;52.548;13.408;2023-05-02T10:16:54;14.10;99.90
2106;DHT22;1059;52.548;13.408;2023-05-02T10:19:28;14.10;99.90
2106;DHT22;1059;52.548;13.408;2023-05-02T10:21:56;14.20;99.90
2106;DHT22;1059;52.548;13.408;2023-05-02T10:24:24;14.20;99.90
2106;DHT22;1059;52.548;13.408;2023-05-02T10:26:52;14.00;99.90
2106;DHT22;1059;52.548;13.408;2023-05-02T10:29:21;13.90;99.90
2106;DHT22;1059;52.548;13.408;2023-05-02T10:31:49;14.10;99.90
2106;DHT22;1059;52.548;13.408;2023-05-02T10:34:17;14.10;99.90
2106;DHT22;1059;52.548;13.408;2023-05-02T10:36:45;14.00;99.90
2106;DHT22;1059;52.548;13.408;2023-05-02T10:39:12;13.90;99.90
2106;DHT22;1059;52.548;13.408;2023-05-02T10:41:40;13.80;99.90
2106;DHT22;1059;52.548;13.408;2023-05-02T10:44:07;13.70;99.90
2106;DHT22;1059;52.548;13.408;2023-05-02T10:46:36;13.70;99.90
2106;DHT22;1059;52.548;13.408;2023-05-02T10:49:06;13.60;99.90
2106;DHT22;1059;52.548;13.408;2023-05-02T10:51:34;13.60;99.90
2106;DHT22;1059;52.548;13.408;2023-05-02T10:54:20;13.50;99.90
2106;DHT22;1059;52.548;13.408;2023-05-02T10:57:04;13.40;99.90
2106;DHT22;1059;52.548;13.408;2023-05-02T10:59:33;13.10;99.90
2106;DHT22;1059;52.548;13.408;2023-05-02T11:02:02;12.90;99.90
2106;DHT22;1059;52.548;13.408;2023-05-02T11:04:57;12.70;99.90
2106;DHT22;1059;52.548;13.408;2023-05-02T11:07:24;12.50;99.90
2106;DHT22;1059;52.548;13.408;2023-05-02T11:09:51;12.40;99.90
2106;DHT22;1059;52.548;13.408;2023-05-02T11:12:42;12.40;99.90
2106;DHT22;1059;52.548;13.408;2023-05-02T11:15:09;12.30;99.90
2106;DHT22;1059;52.548;13.408;2023-05-02T11:17:59;12.30;99.90
2106;DHT22;1059;52.548;13.408;2023-05-02T11:20:26;12.20;99.90
2106;DHT22;1059;52.548;13.408;2023-05-02T11:22:55;11.90;99.90
2106;DHT22;1059;52.548;13.408;2023-05-02T11:25:31;11.90;99.90
2106;DHT22;1059;52.548;13.408;2023-05-02T11:27:58;12.10;99.90
2106;DHT22;1059;52.548;13.408;2023-05-02T11:30:43;12.20;99.90
2106;DHT22;1059;52.548;13.408;2023-05-02T11:33:17;12.30;99.90
2106;DHT22;1059;52.548;13.408;2023-05-02T11:35:48;12.40;99.90
2106;DHT22;1059;52.548;13.408;2023-05-02T11:38:19;12.40;99.90
2106;DHT22;1059;52.548;13.408;2023-05-02T11:40:57;12.40;99.90
2106;DHT22;1059;52.548;13.408;2023-05-02T11:43:25;12.40;99.90
2106;DHT22;1059;52.548;13.408;2023-05-02T11:45:53;12.40;99.90
2106;DHT22;1059;52.548;13.408;2023-05-02T11:48:22;12.50;99.90
2106;DHT22;1059;52.548;13.408;2023-05-02T11:50:53;12.50;99.90
2106;DHT22;1059;52.548;13.408;2023-05-02T11:53:22;12.30;99.90
2106;DHT22;1059;52.548;13.408;2023-05-02T11:55:51;12.40;99.90
2106;DHT22;1059;52.548;13.408;2023-05-02T11:58:19;12.40;99.90
2106;DHT22;1059;52.548;13.408;2023-05-02T12:00:47;12.50;99.90
2106;DHT22;1059;52.548;13.408;2023-05-02T12:03:29;12.30;99.90
2106;DHT22;1059;52.548;13.408;2023-05-02T12:05:57;12.30;99.90
2106;DHT22;1059;52.548;13.408;2023-05-02T12:08:27;12.50;99.90
2106;DHT22;1059;52.548;13.408;2023-05-02T12:10:55;12.50;99.90
2106;DHT22;1059;52.548;13.408;2023-05-02T12:13:24;12.40;99.90
2106;DHT22;1059;52.548;13.408;2023-05-02T12:15:52;12.50;99.90
2106;DHT22;1059;52.548;13.408;2023-05-02T12:18:21;12.50;99.90
2106;DHT22;1059;52.548;13.408;2023-05-02T12:20:51;12.50;99.90
2106;DHT22;1059;52.548;13.408;2023-05-02T12:23:19;12.60;99.90
2106;DHT22;1059;52.548;13.408;2023-05-02T12:25:46;12.80;99.90
2106;DHT22;1059;52.548;13.408;2023-05-02T12:30:46;13.00;99.90
2106;DHT22;1059;52.548;13.408;2023-05-02T12:33:13;13.00;99.90
2106;DHT22;1059;52.548;13.408;2023-05-02T12:35:41;12.90;99.90
2106;DHT22;1059;52.548;13.408;2023-05-02T12:38:11;12.90;99.90
2106;DHT22;1059;52.548;13.408;2023-05-02T12:40:46;13.10;99.90
2106;DHT22;1059;52.548;13.408;2023-05-02T12:43:13;13.10;99.90
2106;DHT22;1059;52.548;13.408;2023-05-02T12:45:40;13.30;99.90
2106;DHT22;1059;52.548;13.408;2023-05-02T12:48:23;13.40;99.90
2106;DHT22;1059;52.548;13.408;2023-05-02T12:50:50;13.00;99.90
2106;DHT22;1059;52.548;13.408;2023-05-02T12:53:36;13.10;99.90
2106;DHT22;1059;52.548;13.408;2023-05-02T12:56:05;12.80;99.90
2106;DHT22;1059;52.548;13.408;2023-05-02T12:58:39;13.30;99.90
2106;DHT22;1059;52.548;13.408;2023-05-02T13:01:07;14.00;99.90
2106;DHT22;1059;52.548;13.408;2023-05-02T13:03:35;14.70;99.90
2106;DHT22;1059;52.548;13.408;2023-05-02T13:06:02;15.50;99.90
2106;DHT22;1059;52.548;13.408;2023-05-02T13:08:31;16.30;99.90
2106;DHT22;1059;52.548;13.408;2023-05-02T13:10:58;16.50;99.90
2106;DHT22;1059;52.548;13.408;2023-05-02T13:13:25;16.50;99.90
2106;DHT22;1059;52.548;13.408;2023-05-02T13:15:52;16.40;99.90
2106;DHT22;1059;52.548;13.408;2023-05-02T13:18:19;16.30;99.90
2106;DHT22;1059;52.548;13.408;2023-05-02T13:20:46;16.10;99.90
2106;DHT22;1059;52.548;13.408;2023-05-02T13:23:13;15.70;99.90
2106;DHT22;1059;52.548;13.408;2023-05-02T13:25:42;15.10;99.90
2106;DHT22;1059;52.548;13.408;2023-05-02T13:28:09;14.80;99.90
2106;DHT22;1059;52.548;13.408;2023-05-02T13:30:36;14.50;99.90
2106;DHT22;1059;52.548;13.408;2023-05-02T13:33:03;14.80;99.90
2106;DHT22;1059;52.548;13.408;2023-05-02T13:35:30;15.00;99.90
2106;DHT22;1059;52.548;13.408;2023-05-02T13:37:57;14.80;99.90
2106;DHT22;1059;52.548;13.408;2023-05-02T13:40:23;14.10;99.90
2106;DHT22;1059;52.548;13.408;2023-05-02T13:42:52;13.20;99.90
2106;DHT22;1059;52.548;13.408;2023-05-02T13:45:19;13.10;99.90
2106;DHT22;1059;52.548;13.408;2023-05-02T13:47:45;13.20;99.90
2106;DHT22;1059;52.548;13.408;2023-05-02T13:50:12;13.60;99.90
2106;DHT22;1059;52.548;13.408;2023-05-02T13:52:39;13.70;99.90
2106;DHT22;1059;52.548;13.408;2023-05-02T13:55:07;13.80;99.90
2106;DHT22;1059;52.548;13.408;2023-05-02T13:57:33;13.70;99.90
2106;DHT22;1059;52.548;13.408;2023-05-02T14:00:02;13.70;99.90
2106;DHT22;1059;52.548;13.408;2023-05-02T14:02:29;13.40;99.90
2106;DHT22;1059;52.548;13.408;2023-05-02T14:04:56;13.40;99.90
2106;DHT22;1059;52.548;13.408;2023-05-02T14:07:23;13.20;99.90
2106;DHT22;1059;52.548;13.408;2023-05-02T14:09:49;13.00;99.90
2106;DHT22;1059;52.548;13.408;2023-05-02T14:12:16;12.90;99.90
2106;DHT22;1059;52.548;13.408;2023-05-02T14:14:43;13.10;99.90
2106;DHT22;1059;52.548;13.408;2023-05-02T14:17:12;13.20;99.90
2106;DHT22;1059;52.548;13.408;2023-05-02T14:19:39;12.90;99.90
2106;DHT22;1059;52.548;13.408;2023-05-02T14:22:06;12.90;99.90
2106;DHT22;1059;52.548;13.408;2023-05-02T14:24:33;12.70;99.90
2106;DHT22;1059;52.548;13.408;2023-05-02T14:26:59;12.60;99.90
2106;DHT22;1059;52.548;13.408;2023-05-02T14:29:27;12.60;99.90
2106;DHT22;1059;52.548;13.408;2023-05-02T14:31:53;12.80;99.90
2106;DHT22;1059;52.548;13.408;2023-05-02T14:34:22;13.10;99.90
2106;DHT22;1059;52.548;13.408;2023-05-02T14:36:51;12.70;99.90
2106;DHT22;1059;52.548;13.408;2023-05-02T14:39:18;12.50;99.90
2106;DHT22;1059;52.548;13.408;2023-05-02T14:41:45;12.40;99.90
2106;DHT22;1059;52.548;13.408;2023-05-02T14:44:11;12.30;99.90
2106;DHT22;1059;52.548;13.408;2023-05-02T14:46:38;12.10;99.90
2106;DHT22;1059;52.548;13.408;2023-05-02T14:49:05;12.00;99.90
2106;DHT22;1059;52.548;13.408;2023-05-02T14:51:36;11.90;99.90
2106;DHT22;1059;52.548;13.408;2023-05-02T14:54:03;11.80;99.90
2106;DHT22;1059;52.548;13.408;2023-05-02T14:56:31;12.00;99.90
2106;DHT22;1059;52.548;13.408;2023-05-02T14:58:58;11.90;99.90
2106;DHT22;1059;52.548;13.408;2023-05-02T15:01:24;12.00;99.90
2106;DHT22;1059;52.548;13.408;2023-05-02T15:03:51;12.00;99.90
2106;DHT22;1059;52.548;13.408;2023-05-02T15:06:20;11.90;99.90
2106;DHT22;1059;52.548;13.408;2023-05-02T15:08:48;11.80;99.90
2106;DHT22;1059;52.548;13.408;2023-05-02T15:11:15;11.80;99.90
2106;DHT22;1059;52.548;13.408;2023-05-02T15:13:42;11.70;99.90
2106;DHT22;1059;52.548;13.408;2023-05-02T15:16:09;11.70;99.90
2106;DHT22;1059;52.548;13.408;2023-05-02T15:18:37;11.70;99.90
2106;DHT22;1059;52.548;13.408;2023-05-02T15:21:04;11.80;99.90
2106;DHT22;1059;52.548;13.408;2023-05-02T15:23:31;11.80;99.90
2106;DHT22;1059;52.548;13.408;2023-05-02T15:25:59;11.60;99.90
2106;DHT22;1059;52.548;13.408;2023-05-02T15:28:26;11.40;99.90
2106;DHT22;1059;52.548;13.408;2023-05-02T15:30:53;11.40;99.90
2106;DHT22;1059;52.548;13.408;2023-05-02T15:33:20;11.50;99.90
2106;DHT22;1059;52.548;13.408;2023-05-02T15:35:54;11.60;99.90
2106;DHT22;1059;52.548;13.408;2023-05-02T15:38:22;11.70;99.90
2106;DHT22;1059;52.548;13.408;2023-05-02T15:40:53;11.70;99.90
2106;DHT22;1059;52.548;13.408;2023-05-02T15:43:21;11.80;99.90
2106;DHT22;1059;52.548;13.408;2023-05-02T15:45:52;12.00;99.90
2106;DHT22;1059;52.548;13.408;2023-05-02T15:48:19;12.20;99.90
2106;DHT22;1059;52.548;13.408;2023-05-02T15:50:46;12.30;99.90
2106;DHT22;1059;52.548;13.408;2023-05-02T15:53:13;12.50;99.90
2106;DHT22;1059;52.548;13.408;2023-05-02T15:55:40;12.30;99.90
2106;DHT22;1059;52.548;13.408;2023-05-02T15:58:08;12.30;99.90